sensor_id;sensor_type;location;lat;lon;timestamp;pressure;altitude;pressure_sealevel;temperature;humidity
52469;BME280;38381;53.688;10.776;2023-02-28T00:01:52;102868.34;;;0.84;80.48
52469;BME280;38381;53.688;10.776;2023-02-28T00:06:53;102865.53;;;0.81;79.87
52469;BME280;38381;53.688;10.776;2023-02-28T00:11:53;102856.75;;;0.77;80.30
52469;BME280;38381;53.688;10.776;2023-02-28T00:16:54;102855.50;;;0.72;80.58
52469;BME280;38381;53.688;10.776;2023-02-28T00:21:54;102847.84;;;0.72;80.41
52469;BME280;38381;53.688;10.776;2023-02-28T00:26:55;102859.63;;;0.60;80.49
52469;BME280;38381;53.688;10.776;2023-02-28T00:31:55;102864.97;;;0.53;80.35
52469;BME280;38381;53.688;10.776;2023-02-28T00:36:55;102870.22;;;0.44;80.54
52469;BME280;38381;53.688;10.776;2023-02-28T00:41:56;102865.78;;;0.31;80.95
52469;BME280;38381;53.688;10.776;2023-02-28T00:46:57;102861.84;;;0.25;80.45
52469;BME280;38381;53.688;10.776;2023-02-28T00:51:57;102864.44;;;0.04;80.76
52469;BME280;38381;53.688;10.776;2023-02-28T00:56:58;102865.56;;;-0.03;81.00
52469;BME280;38381;53.688;10.776;2023-02-28T01:01:59;102874.22;;;-0.11;81.24
52469;BME280;38381;53.688;10.776;2023-02-28T01:06:59;102887.38;;;-0.16;81.40
52469;BME280;38381;53.688;10.776;2023-02-28T01:12:00;102878.78;;;-0.27;81.68
52469;BME280;38381;53.688;10.776;2023-02-28T01:17:00;102875.13;;;-0.31;82.02
52469;BME280;38381;53.688;10.776;2023-02-28T01:22:03;102871.63;;;-0.42;81.81
52469;BME280;38381;53.688;10.776;2023-02-28T01:27:04;102881.78;;;-0.62;81.32
52469;BME280;38381;53.688;10.776;2023-02-28T01:32:04;102876.31;;;-0.67;83.19
52469;BME280;38381;53.688;10.776;2023-02-28T01:37:05;102891.34;;;-0.70;83.02
52469;BME280;38381;53.688;10.776;2023-02-28T01:42:05;102881.50;;;-0.75;83.33
52469;BME280;38381;53.688;10.776;2023-02-28T01:47:06;102874.75;;;-0.75;83.34
52469;BME280;38381;53.688;10.776;2023-02-28T01:52:06;102878.56;;;-0.80;83.40
52469;BME280;38381;53.688;10.776;2023-02-28T01:57:11;102873.44;;;-0.90;82.48
52469;BME280;38381;53.688;10.776;2023-02-28T02:02:15;102870.84;;;-1.00;82.95
52469;BME280;38381;53.688;10.776;2023-02-28T02:07:16;102870.53;;;-1.14;83.18
52469;BME280;38381;53.688;10.776;2023-02-28T02:12:42;102867.63;;;-1.37;83.80
52469;BME280;38381;53.688;10.776;2023-02-28T02:17:56;102879.38;;;-1.48;84.89
52469;BME280;38381;53.688;10.776;2023-02-28T02:23:02;102874.09;;;-1.60;85.40
52469;BME280;38381;53.688;10.776;2023-02-28T02:39:45;102866.47;;;-1.60;85.19
52469;BME280;38381;53.688;10.776;2023-02-28T02:44:58;102869.50;;;-1.64;85.30
52469;BME280;38381;53.688;10.776;2023-02-28T02:50:05;102868.47;;;-1.66;85.45
52469;BME280;38381;53.688;10.776;2023-02-28T02:55:08;102865.13;;;-1.65;85.53
52469;BME280;38381;53.688;10.776;2023-02-28T03:00:12;102870.63;;;-1.79;84.75
52469;BME280;38381;53.688;10.776;2023-02-28T03:05:19;102857.91;;;-1.98;85.19
52469;BME280;38381;53.688;10.776;2023-02-28T03:10:27;102872.28;;;-1.99;85.72
52469;BME280;38381;53.688;10.776;2023-02-28T03:15:47;102870.63;;;-1.98;86.08
52469;BME280;38381;53.688;10.776;2023-02-28T03:21:18;102880.31;;;-1.94;86.26
52469;BME280;38381;53.688;10.776;2023-02-28T03:26:26;102873.44;;;-1.95;86.19
52469;BME280;38381;53.688;10.776;2023-02-28T03:31:33;102887.25;;;-2.02;86.17
52469;BME280;38381;53.688;10.776;2023-02-28T03:36:38;102882.16;;;-2.02;85.25
52469;BME280;38381;53.688;10.776;2023-02-28T03:42:00;102883.41;;;-2.07;85.46
52469;BME280;38381;53.688;10.776;2023-02-28T03:47:24;102887.78;;;-2.15;85.33
52469;BME280;38381;53.688;10.776;2023-02-28T03:52:27;102883.00;;;-2.20;85.22
52469;BME280;38381;53.688;10.776;2023-02-28T04:02:50;102892.34;;;-2.30;85.36
52469;BME280;38381;53.688;10.776;2023-02-28T04:07:52;102891.00;;;-2.35;84.89
52469;BME280;38381;53.688;10.776;2023-02-28T04:12:54;102877.47;;;-2.44;85.45
52469;BME280;38381;53.688;10.776;2023-02-28T04:17:54;102889.59;;;-2.50;85.21
52469;BME280;38381;53.688;10.776;2023-02-28T04:22:55;102877.94;;;-2.48;84.66
52469;BME280;38381;53.688;10.776;2023-02-28T04:27:55;102884.81;;;-2.56;85.16
52469;BME280;38381;53.688;10.776;2023-02-28T04:32:55;102885.44;;;-2.58;84.78
52469;BME280;38381;53.688;10.776;2023-02-28T04:37:56;102882.75;;;-2.60;84.99
52469;BME280;38381;53.688;10.776;2023-02-28T04:42:56;102882.91;;;-2.67;84.67
52469;BME280;38381;53.688;10.776;2023-02-28T04:47:56;102889.69;;;-2.76;85.08
52469;BME280;38381;53.688;10.776;2023-02-28T04:52:57;102890.75;;;-2.83;84.97
52469;BME280;38381;53.688;10.776;2023-02-28T04:57:57;102902.84;;;-2.98;83.88
52469;BME280;38381;53.688;10.776;2023-02-28T05:02:58;102907.50;;;-3.03;85.18
52469;BME280;38381;53.688;10.776;2023-02-28T05:07:58;102906.88;;;-3.00;85.78
52469;BME280;38381;53.688;10.776;2023-02-28T05:12:58;102914.22;;;-3.03;85.18
52469;BME280;38381;53.688;10.776;2023-02-28T05:17:59;102909.59;;;-3.07;84.96
52469;BME280;38381;53.688;10.776;2023-02-28T05:23:00;102917.50;;;-3.04;83.82
52469;BME280;38381;53.688;10.776;2023-02-28T05:28:01;102913.94;;;-3.15;84.93
52469;BME280;38381;53.688;10.776;2023-02-28T05:33:01;102914.84;;;-3.23;84.97
52469;BME280;38381;53.688;10.776;2023-02-28T05:38:01;102910.81;;;-3.38;84.79
52469;BME280;38381;53.688;10.776;2023-02-28T05:43:02;102909.34;;;-3.36;85.74
52469;BME280;38381;53.688;10.776;2023-02-28T05:48:02;102909.19;;;-3.38;85.31
52469;BME280;38381;53.688;10.776;2023-02-28T05:53:03;102914.38;;;-3.45;85.62
52469;BME280;38381;53.688;10.776;2023-02-28T05:58:03;102908.59;;;-3.44;84.81
52469;BME280;38381;53.688;10.776;2023-02-28T06:03:04;102917.06;;;-3.44;84.84
52469;BME280;38381;53.688;10.776;2023-02-28T06:08:05;102931.09;;;-3.47;85.62
52469;BME280;38381;53.688;10.776;2023-02-28T06:13:08;102937.66;;;-3.49;86.09
52469;BME280;38381;53.688;10.776;2023-02-28T06:18:08;102936.03;;;-3.49;86.75
52469;BME280;38381;53.688;10.776;2023-02-28T06:23:09;102942.28;;;-3.54;85.91
52469;BME280;38381;53.688;10.776;2023-02-28T06:28:09;102951.84;;;-3.51;85.33
52469;BME280;38381;53.688;10.776;2023-02-28T06:33:10;102947.34;;;-3.54;85.38
52469;BME280;38381;53.688;10.776;2023-02-28T06:38:10;102950.06;;;-3.52;85.50
52469;BME280;38381;53.688;10.776;2023-02-28T06:43:11;102949.00;;;-3.54;85.72
52469;BME280;38381;53.688;10.776;2023-02-28T06:48:13;102953.03;;;-3.56;85.49
52469;BME280;38381;53.688;10.776;2023-02-28T06:53:13;102954.81;;;-3.55;85.97
52469;BME280;38381;53.688;10.776;2023-02-28T06:58:14;102963.03;;;-3.49;85.99
52469;BME280;38381;53.688;10.776;2023-02-28T07:03:19;102960.53;;;-3.40;86.60
52469;BME280;38381;53.688;10.776;2023-02-28T07:08:19;102960.34;;;-3.33;87.44
52469;BME280;38381;53.688;10.776;2023-02-28T07:13:19;102961.41;;;-3.22;87.55
52469;BME280;38381;53.688;10.776;2023-02-28T07:18:21;102956.31;;;-3.22;87.44
52469;BME280;38381;53.688;10.776;2023-02-28T07:23:22;102959.47;;;-3.08;87.49
52469;BME280;38381;53.688;10.776;2023-02-28T07:28:23;102957.66;;;-3.09;87.92
52469;BME280;38381;53.688;10.776;2023-02-28T07:33:24;102955.91;;;-3.10;88.67
52469;BME280;38381;53.688;10.776;2023-02-28T07:38:24;102957.97;;;-3.06;90.60
52469;BME280;38381;53.688;10.776;2023-02-28T07:43:24;102957.38;;;-2.94;91.83
52469;BME280;38381;53.688;10.776;2023-02-28T07:48:25;102963.94;;;-2.79;91.38
52469;BME280;38381;53.688;10.776;2023-02-28T07:53:26;102966.41;;;-2.61;91.90
52469;BME280;38381;53.688;10.776;2023-02-28T07:58:29;102970.53;;;-2.36;91.99
52469;BME280;38381;53.688;10.776;2023-02-28T08:03:29;102970.88;;;-2.05;92.41
52469;BME280;38381;53.688;10.776;2023-02-28T08:08:30;102977.59;;;-1.78;92.23
52469;BME280;38381;53.688;10.776;2023-02-28T08:13:31;102974.63;;;-1.36;92.49
52469;BME280;38381;53.688;10.776;2023-02-28T08:18:32;102972.19;;;-1.07;91.75
52469;BME280;38381;53.688;10.776;2023-02-28T08:23:33;102968.34;;;-0.53;91.83
52469;BME280;38381;53.688;10.776;2023-02-28T08:28:33;102969.72;;;-0.17;90.07
52469;BME280;38381;53.688;10.776;2023-02-28T08:33:34;102960.59;;;0.05;88.73
52469;BME280;38381;53.688;10.776;2023-02-28T08:38:35;102966.50;;;0.45;88.46
52469;BME280;38381;53.688;10.776;2023-02-28T08:43:37;102969.25;;;0.69;87.09
52469;BME280;38381;53.688;10.776;2023-02-28T08:48:38;102969.22;;;0.99;86.20
52469;BME280;38381;53.688;10.776;2023-02-28T08:53:39;102968.84;;;1.37;85.72
52469;BME280;38381;53.688;10.776;2023-02-28T08:58:40;102974.78;;;1.80;83.07
52469;BME280;38381;53.688;10.776;2023-02-28T09:03:41;102970.94;;;2.19;81.73
52469;BME280;38381;53.688;10.776;2023-02-28T09:08:42;102968.41;;;2.43;80.27
52469;BME280;38381;53.688;10.776;2023-02-28T09:13:43;102969.81;;;2.73;78.65
52469;BME280;38381;53.688;10.776;2023-02-28T09:18:43;102978.53;;;3.22;80.07
52469;BME280;38381;53.688;10.776;2023-02-28T09:23:45;102973.78;;;3.52;76.14
52469;BME280;38381;53.688;10.776;2023-02-28T09:28:46;102975.16;;;3.84;73.47
52469;BME280;38381;53.688;10.776;2023-02-28T09:33:48;102972.72;;;4.11;70.80
52469;BME280;38381;53.688;10.776;2023-02-28T09:38:49;102977.56;;;4.44;69.50
52469;BME280;38381;53.688;10.776;2023-02-28T09:43:54;102985.34;;;4.84;66.70
52469;BME280;38381;53.688;10.776;2023-02-28T09:48:56;102986.16;;;4.97;66.01
52469;BME280;38381;53.688;10.776;2023-02-28T09:54:01;102982.22;;;5.15;64.83
52469;BME280;38381;53.688;10.776;2023-02-28T09:59:31;102982.81;;;5.11;65.97
52469;BME280;38381;53.688;10.776;2023-02-28T10:09:39;102976.78;;;5.65;62.89
52469;BME280;38381;53.688;10.776;2023-02-28T10:14:45;102960.38;;;5.92;59.41
52469;BME280;38381;53.688;10.776;2023-02-28T10:20:02;102959.22;;;5.87;62.47
52469;BME280;38381;53.688;10.776;2023-02-28T10:25:18;102974.91;;;6.04;57.02
52469;BME280;38381;53.688;10.776;2023-02-28T10:30:19;102967.16;;;5.76;60.04
52469;BME280;38381;53.688;10.776;2023-02-28T10:35:25;102966.34;;;5.77;61.06
52469;BME280;38381;53.688;10.776;2023-02-28T10:40:31;102967.94;;;5.75;61.21
52469;BME280;38381;53.688;10.776;2023-02-28T10:45:34;102967.78;;;6.00;61.42
52469;BME280;38381;53.688;10.776;2023-02-28T11:01:02;102967.91;;;6.75;56.63
52469;BME280;38381;53.688;10.776;2023-02-28T11:06:08;102971.53;;;6.63;57.80
52469;BME280;38381;53.688;10.776;2023-02-28T11:11:14;102972.88;;;6.57;58.17
52469;BME280;38381;53.688;10.776;2023-02-28T11:16:14;102967.88;;;6.60;57.59
52469;BME280;38381;53.688;10.776;2023-02-28T11:21:26;102960.16;;;7.21;56.30
52469;BME280;38381;53.688;10.776;2023-02-28T11:26:42;102962.09;;;7.25;57.42
52469;BME280;38381;53.688;10.776;2023-02-28T11:31:43;102958.47;;;6.60;55.09
52469;BME280;38381;53.688;10.776;2023-02-28T11:36:43;102943.06;;;7.23;55.93
52469;BME280;38381;53.688;10.776;2023-02-28T11:52:48;102923.34;;;6.77;55.32
52469;BME280;38381;53.688;10.776;2023-02-28T11:58:00;102931.97;;;7.24;52.88
52469;BME280;38381;53.688;10.776;2023-02-28T12:03:11;102923.53;;;7.12;52.89
52469;BME280;38381;53.688;10.776;2023-02-28T12:08:45;102909.19;;;7.17;51.91
52469;BME280;38381;53.688;10.776;2023-02-28T12:19:21;102896.81;;;7.42;52.49
52469;BME280;38381;53.688;10.776;2023-02-28T12:29:46;102887.38;;;7.59;51.96
52469;BME280;38381;53.688;10.776;2023-02-28T12:34:53;102873.88;;;7.98;51.52
52469;BME280;38381;53.688;10.776;2023-02-28T12:40:01;102872.13;;;7.80;51.83
52469;BME280;38381;53.688;10.776;2023-02-28T12:45:11;102862.34;;;7.75;49.07
52469;BME280;38381;53.688;10.776;2023-02-28T12:50:14;102849.44;;;7.58;48.60
52469;BME280;38381;53.688;10.776;2023-02-28T12:55:21;102843.47;;;7.76;49.76
52469;BME280;38381;53.688;10.776;2023-02-28T13:00:30;102840.25;;;7.63;49.43
52469;BME280;38381;53.688;10.776;2023-02-28T13:10:58;102837.13;;;7.53;47.98
52469;BME280;38381;53.688;10.776;2023-02-28T13:16:02;102834.03;;;7.60;48.79
52469;BME280;38381;53.688;10.776;2023-02-28T13:21:04;102829.53;;;7.56;48.48
52469;BME280;38381;53.688;10.776;2023-02-28T13:26:06;102827.03;;;7.24;47.02
52469;BME280;38381;53.688;10.776;2023-02-28T13:31:06;102830.06;;;7.34;48.32
52469;BME280;38381;53.688;10.776;2023-02-28T13:46:29;102836.06;;;7.33;45.60
52469;BME280;38381;53.688;10.776;2023-02-28T13:51:39;102841.97;;;7.30;45.75
52469;BME280;38381;53.688;10.776;2023-02-28T14:02:48;102832.75;;;7.52;45.78
52469;BME280;38381;53.688;10.776;2023-02-28T14:07:57;102839.19;;;7.43;46.39
52469;BME280;38381;53.688;10.776;2023-02-28T14:13:02;102829.53;;;7.56;45.94
52469;BME280;38381;53.688;10.776;2023-02-28T14:18:14;102837.59;;;7.45;47.68
52469;BME280;38381;53.688;10.776;2023-02-28T14:29:05;102830.06;;;7.34;47.59
52469;BME280;38381;53.688;10.776;2023-02-28T14:34:31;102833.72;;;7.21;46.87
52469;BME280;38381;53.688;10.776;2023-02-28T14:39:35;102835.97;;;7.15;45.69
52469;BME280;38381;53.688;10.776;2023-02-28T14:44:37;102830.81;;;7.15;46.18
52469;BME280;38381;53.688;10.776;2023-02-28T14:49:42;102825.06;;;7.04;46.24
52469;BME280;38381;53.688;10.776;2023-02-28T14:54:44;102820.97;;;7.08;46.71
52469;BME280;38381;53.688;10.776;2023-02-28T14:59:44;102814.84;;;7.05;47.56
52469;BME280;38381;53.688;10.776;2023-02-28T15:15:18;102799.38;;;6.28;45.21
52469;BME280;38381;53.688;10.776;2023-02-28T15:20:21;102786.31;;;6.25;45.81
52469;BME280;38381;53.688;10.776;2023-02-28T15:25:22;102780.41;;;6.11;47.72
52469;BME280;38381;53.688;10.776;2023-02-28T15:30:29;102781.78;;;6.21;47.51
52469;BME280;38381;53.688;10.776;2023-02-28T15:35:32;102778.63;;;6.10;47.26
52469;BME280;38381;53.688;10.776;2023-02-28T15:40:40;102781.25;;;6.27;47.34
52469;BME280;38381;53.688;10.776;2023-02-28T15:45:46;102775.09;;;6.39;48.27
52469;BME280;38381;53.688;10.776;2023-02-28T15:50:51;102774.75;;;6.33;46.71
52469;BME280;38381;53.688;10.776;2023-02-28T15:56:01;102779.22;;;6.36;46.32
52469;BME280;38381;53.688;10.776;2023-02-28T16:01:29;102775.81;;;6.37;47.89
52469;BME280;38381;53.688;10.776;2023-02-28T16:06:34;102777.91;;;6.28;47.20
52469;BME280;38381;53.688;10.776;2023-02-28T16:11:38;102771.06;;;6.13;46.77
52469;BME280;38381;53.688;10.776;2023-02-28T16:16:43;102779.59;;;6.12;48.20
52469;BME280;38381;53.688;10.776;2023-02-28T16:21:44;102781.09;;;6.09;48.86
52469;BME280;38381;53.688;10.776;2023-02-28T16:26:47;102785.72;;;5.99;48.69
52469;BME280;38381;53.688;10.776;2023-02-28T16:31:48;102787.66;;;5.89;49.51
52469;BME280;38381;53.688;10.776;2023-02-28T16:36:49;102785.50;;;5.81;52.46
52469;BME280;38381;53.688;10.776;2023-02-28T16:41:50;102788.34;;;5.71;51.78
52469;BME280;38381;53.688;10.776;2023-02-28T16:46:51;102795.25;;;5.57;53.64
52469;BME280;38381;53.688;10.776;2023-02-28T16:51:52;102798.97;;;5.48;54.25
52469;BME280;38381;53.688;10.776;2023-02-28T16:56:53;102806.69;;;5.19;53.73
52469;BME280;38381;53.688;10.776;2023-02-28T17:01:55;102807.84;;;4.96;54.50
52469;BME280;38381;53.688;10.776;2023-02-28T17:06:57;102817.47;;;4.72;56.41
52469;BME280;38381;53.688;10.776;2023-02-28T17:11:58;102821.25;;;4.37;57.79
52469;BME280;38381;53.688;10.776;2023-02-28T17:16:59;102818.94;;;4.15;58.55
52469;BME280;38381;53.688;10.776;2023-02-28T17:21:59;102819.03;;;4.03;58.38
52469;BME280;38381;53.688;10.776;2023-02-28T17:27:00;102825.50;;;3.85;59.88
52469;BME280;38381;53.688;10.776;2023-02-28T17:32:01;102821.84;;;3.56;60.50
52469;BME280;38381;53.688;10.776;2023-02-28T17:37:01;102827.06;;;3.45;60.44
52469;BME280;38381;53.688;10.776;2023-02-28T17:42:02;102825.09;;;3.29;60.65
52469;BME280;38381;53.688;10.776;2023-02-28T17:47:03;102820.38;;;3.10;61.12
52469;BME280;38381;53.688;10.776;2023-02-28T17:52:04;102825.78;;;2.89;60.85
52469;BME280;38381;53.688;10.776;2023-02-28T17:57:04;102829.34;;;2.68;62.07
52469;BME280;38381;53.688;10.776;2023-02-28T18:02:04;102833.81;;;2.58;62.32
52469;BME280;38381;53.688;10.776;2023-02-28T18:07:06;102845.06;;;2.37;62.22
52469;BME280;38381;53.688;10.776;2023-02-28T18:12:09;102837.69;;;2.18;62.70
52469;BME280;38381;53.688;10.776;2023-02-28T18:17:11;102847.88;;;1.94;64.59
52469;BME280;38381;53.688;10.776;2023-02-28T18:22:12;102859.09;;;1.85;65.30
52469;BME280;38381;53.688;10.776;2023-02-28T18:27:12;102858.72;;;1.68;65.85
52469;BME280;38381;53.688;10.776;2023-02-28T18:32:13;102852.41;;;1.53;66.43
52469;BME280;38381;53.688;10.776;2023-02-28T18:37:13;102852.34;;;1.41;65.85
52469;BME280;38381;53.688;10.776;2023-02-28T18:42:15;102857.16;;;1.26;66.76
52469;BME280;38381;53.688;10.776;2023-02-28T18:47:15;102858.50;;;1.21;67.57
52469;BME280;38381;53.688;10.776;2023-02-28T18:52:16;102855.72;;;1.08;68.04
52469;BME280;38381;53.688;10.776;2023-02-28T18:57:17;102848.31;;;0.78;67.74
52469;BME280;38381;53.688;10.776;2023-02-28T19:02:17;102846.88;;;0.50;68.90
52469;BME280;38381;53.688;10.776;2023-02-28T19:07:18;102858.34;;;0.45;69.42
52469;BME280;38381;53.688;10.776;2023-02-28T19:12:21;102858.25;;;0.43;70.00
52469;BME280;38381;53.688;10.776;2023-02-28T19:17:21;102862.88;;;0.27;69.33
52469;BME280;38381;53.688;10.776;2023-02-28T19:22:22;102867.97;;;0.27;70.44
52469;BME280;38381;53.688;10.776;2023-02-28T19:27:23;102874.34;;;0.22;70.48
52469;BME280;38381;53.688;10.776;2023-02-28T19:32:25;102870.78;;;0.19;71.03
52469;BME280;38381;53.688;10.776;2023-02-28T19:37:25;102864.44;;;0.04;71.97
52469;BME280;38381;53.688;10.776;2023-02-28T19:42:26;102861.38;;;-0.02;71.38
52469;BME280;38381;53.688;10.776;2023-02-28T19:47:32;102866.06;;;-0.17;71.98
52469;BME280;38381;53.688;10.776;2023-02-28T19:52:32;102872.06;;;-0.16;73.24
52469;BME280;38381;53.688;10.776;2023-02-28T19:57:33;102865.44;;;-0.25;73.20
52469;BME280;38381;53.688;10.776;2023-02-28T20:02:35;102862.09;;;-0.34;73.26
52469;BME280;38381;53.688;10.776;2023-02-28T20:07:36;102859.91;;;-0.50;71.97
52469;BME280;38381;53.688;10.776;2023-02-28T20:12:36;102861.28;;;-0.64;73.32
52469;BME280;38381;53.688;10.776;2023-02-28T20:17:37;102854.53;;;-0.63;74.72
52469;BME280;38381;53.688;10.776;2023-02-28T20:22:38;102853.16;;;-0.59;73.87
52469;BME280;38381;53.688;10.776;2023-02-28T20:27:41;102847.47;;;-0.86;75.12
52469;BME280;38381;53.688;10.776;2023-02-28T20:32:42;102850.25;;;-0.83;75.50
52469;BME280;38381;53.688;10.776;2023-02-28T20:37:43;102847.69;;;-0.93;74.68
52469;BME280;38381;53.688;10.776;2023-02-28T20:42:43;102858.91;;;-0.91;76.01
52469;BME280;38381;53.688;10.776;2023-02-28T20:47:44;102854.97;;;-0.88;75.65
52469;BME280;38381;53.688;10.776;2023-02-28T20:52:44;102855.81;;;-0.97;76.01
52469;BME280;38381;53.688;10.776;2023-02-28T20:57:44;102855.03;;;-1.07;76.28
52469;BME280;38381;53.688;10.776;2023-02-28T21:02:45;102852.97;;;-1.11;76.41
52469;BME280;38381;53.688;10.776;2023-02-28T21:07:45;102853.19;;;-1.18;76.90
52469;BME280;38381;53.688;10.776;2023-02-28T21:12:48;102857.00;;;-1.23;76.77
52469;BME280;38381;53.688;10.776;2023-02-28T21:17:49;102850.44;;;-1.30;77.58
52469;BME280;38381;53.688;10.776;2023-02-28T21:22:50;102850.19;;;-1.33;78.03
52469;BME280;38381;53.688;10.776;2023-02-28T21:27:52;102857.19;;;-1.30;77.91
52469;BME280;38381;53.688;10.776;2023-02-28T21:32:56;102850.88;;;-1.44;77.28
52469;BME280;38381;53.688;10.776;2023-02-28T21:37:57;102854.94;;;-1.46;77.77
52469;BME280;38381;53.688;10.776;2023-02-28T21:42:57;102867.41;;;-1.49;77.90
52469;BME280;38381;53.688;10.776;2023-02-28T21:47:57;102859.63;;;-1.51;77.61
52469;BME280;38381;53.688;10.776;2023-02-28T21:52:58;102864.94;;;-1.58;78.15
52469;BME280;38381;53.688;10.776;2023-02-28T21:57:58;102863.63;;;-1.63;77.82
52469;BME280;38381;53.688;10.776;2023-02-28T22:02:58;102864.72;;;-1.70;78.56
52469;BME280;38381;53.688;10.776;2023-02-28T22:07:59;102864.31;;;-1.74;78.10
52469;BME280;38381;53.688;10.776;2023-02-28T22:13:00;102870.31;;;-1.74;78.79
52469;BME280;38381;53.688;10.776;2023-02-28T22:18:02;102864.03;;;-1.77;78.88
52469;BME280;38381;53.688;10.776;2023-02-28T22:23:03;102865.53;;;-1.79;78.78
52469;BME280;38381;53.688;10.776;2023-02-28T22:28:03;102876.06;;;-1.85;79.31
52469;BME280;38381;53.688;10.776;2023-02-28T22:33:03;102883.28;;;-1.90;79.56
52469;BME280;38381;53.688;10.776;2023-02-28T22:38:04;102881.97;;;-1.95;79.36
52469;BME280;38381;53.688;10.776;2023-02-28T22:43:05;102886.63;;;-1.99;79.32
52469;BME280;38381;53.688;10.776;2023-02-28T22:48:07;102882.31;;;-2.00;79.73
52469;BME280;38381;53.688;10.776;2023-02-28T22:53:08;102875.88;;;-2.06;79.99
52469;BME280;38381;53.688;10.776;2023-02-28T22:58:08;102867.09;;;-2.09;79.88
52469;BME280;38381;53.688;10.776;2023-02-28T23:03:08;102864.75;;;-2.16;79.97
52469;BME280;38381;53.688;10.776;2023-02-28T23:08:09;102859.97;;;-2.22;80.33
52469;BME280;38381;53.688;10.776;2023-02-28T23:13:09;102857.31;;;-2.24;80.34
52469;BME280;38381;53.688;10.776;2023-02-28T23:18:10;102855.09;;;-2.29;80.55
52469;BME280;38381;53.688;10.776;2023-02-28T23:23:11;102864.84;;;-2.34;80.19
52469;BME280;38381;53.688;10.776;2023-02-28T23:28:12;102868.91;;;-2.36;80.26
52469;BME280;38381;53.688;10.776;2023-02-28T23:33:12;102879.22;;;-2.43;80.27
52469;BME280;38381;53.688;10.776;2023-02-28T23:38:13;102880.88;;;-2.44;80.93
52469;BME280;38381;53.688;10.776;2023-02-28T23:43:13;102871.34;;;-2.46;80.74
52469;BME280;38381;53.688;10.776;2023-02-28T23:48:13;102865.22;;;-2.48;80.87
52469;BME280;38381;53.688;10.776;2023-02-28T23:53:14;102867.16;;;-2.46;80.43
52469;BME280;38381;53.688;10.776;2023-02-28T23:58:14;102852.84;;;-2.54;81.07
